Time;durP1;ratioP1;P1;durP2;ratioP2;P2;SDS_P1;SDS_P2;PMS_P1;PMS_P2;Temp;Humidity;BMP_temperature;BMP_pressure;BME280_temperature;BME280_humidity;BME280_pressure;Samples;Min_cycle;Max_cycle;Signal;HPM_P1;HPM_P2
2021/06/11 00:01:53;;;;;;;2.00;1.80;;;24.30;55.10;;;;;;5095189;28;20278;-60
2021/06/11 00:04:19;;;;;;;1.90;1.80;;;24.30;55.10;;;;;;5096047;28;20211;-60
2021/06/11 00:06:44;;;;;;;1.85;1.75;;;24.30;55.10;;;;;;5095385;28;20268;-60
2021/06/11 00:09:13;;;;;;;1.90;1.70;;;24.30;55.20;;;;;;5095280;28;20181;-60
2021/06/11 00:11:39;;;;;;;1.85;1.75;;;24.30;55.10;;;;;;5095542;28;20177;-59
2021/06/11 00:14:04;;;;;;;2.10;1.90;;;24.30;55.20;;;;;;5095484;28;20651;-59
2021/06/11 00:16:30;;;;;;;1.73;1.63;;;24.30;55.20;;;;;;5094785;28;20539;-59
2021/06/11 00:18:55;;;;;;;1.83;1.73;;;24.20;55.10;;;;;;5095532;28;20647;-59
2021/06/11 00:21:21;;;;;;;1.70;1.60;;;24.30;55.20;;;;;;5095153;28;20300;-59
2021/06/11 00:23:46;;;;;;;2.33;1.75;;;24.30;55.20;;;;;;5094818;28;20170;-59
2021/06/11 00:26:12;;;;;;;1.80;1.45;;;24.30;55.20;;;;;;5095416;28;20174;-59
2021/06/11 00:28:37;;;;;;;2.10;1.90;;;24.20;55.30;;;;;;5094540;28;20220;-59
2021/06/11 00:31:03;;;;;;;1.90;1.80;;;24.20;55.20;;;;;;5095375;28;20178;-59
2021/06/11 00:33:28;;;;;;;1.75;1.65;;;24.20;55.20;;;;;;5095131;28;20170;-60
2021/06/11 00:35:54;;;;;;;1.67;1.58;;;24.20;55.20;;;;;;5094358;28;20184;-60
2021/06/11 00:38:20;;;;;;;1.85;1.75;;;24.20;55.20;;;;;;5094500;28;20576;-60
2021/06/11 00:40:45;;;;;;;2.13;1.92;;;24.20;55.20;;;;;;5094727;28;20213;-59
2021/06/11 00:43:14;;;;;;;1.80;1.70;;;24.20;55.30;;;;;;5094681;28;20612;-60
2021/06/11 00:45:44;;;;;;;1.88;1.77;;;24.20;55.20;;;;;;5094866;28;20169;-59
2021/06/11 00:48:10;;;;;;;1.92;1.80;;;24.20;55.30;;;;;;5094842;28;20174;-59
2021/06/11 00:50:36;;;;;;;2.35;1.80;;;24.20;55.30;;;;;;5094103;28;20261;-59
2021/06/11 00:53:02;;;;;;;1.92;1.83;;;24.10;55.20;;;;;;5095112;28;20257;-59
2021/06/11 00:55:28;;;;;;;2.00;1.85;;;24.20;55.30;;;;;;5076950;28;20170;-59
2021/06/11 00:57:53;;;;;;;1.90;1.80;;;24.10;55.30;;;;;;5076099;28;20182;-59
2021/06/11 01:00:28;;;;;;;2.03;1.83;;;24.20;55.30;;;;;;5060151;28;20212;-60
2021/06/11 01:02:54;;;;;;;2.03;1.92;;;24.20;55.30;;;;;;5094107;28;20225;-60
2021/06/11 01:05:19;;;;;;;1.75;1.65;;;24.10;55.30;;;;;;5094106;28;20174;-59
2021/06/11 01:07:47;;;;;;;1.98;1.88;;;24.10;55.30;;;;;;5094588;28;20257;-59
2021/06/11 01:10:13;;;;;;;1.80;1.70;;;24.20;55.30;;;;;;5094572;28;20197;-60
2021/06/11 01:12:38;;;;;;;1.73;1.63;;;24.10;55.30;;;;;;5075760;28;20173;-60
2021/06/11 01:15:05;;;;;;;2.25;1.92;;;24.10;55.20;;;;;;5076518;28;20177;-59
2021/06/11 01:17:34;;;;;;;1.70;1.60;;;24.10;55.30;;;;;;5076028;28;20538;-59
2021/06/11 01:20:00;;;;;;;2.08;1.95;;;24.10;55.30;;;;;;5076060;28;20213;-59
2021/06/11 01:22:47;;;;;;;1.70;1.60;;;24.10;55.30;;;;;;5059413;28;20174;-59
2021/06/11 01:25:17;;;;;;;1.63;1.52;;;24.10;55.30;;;;;;5093868;28;20177;-59
2021/06/11 01:27:45;;;;;;;2.17;2.08;;;24.10;55.30;;;;;;5093967;28;20670;-59
2021/06/11 01:30:18;;;;;;;1.60;1.50;;;24.10;55.30;;;;;;5094104;28;20186;-59
2021/06/11 01:32:44;;;;;;;2.40;2.20;;;24.10;55.30;;;;;;5093531;28;20170;-60
2021/06/11 01:35:20;;;;;;;1.70;1.60;;;24.00;55.30;;;;;;5094272;28;20209;-60
2021/06/11 01:37:46;;;;;;;1.70;1.60;;;24.00;55.30;;;;;;5093686;28;20178;-59
2021/06/11 01:40:12;;;;;;;1.77;1.67;;;24.00;55.30;;;;;;5093436;28;20216;-60
2021/06/11 01:42:43;;;;;;;1.80;1.70;;;24.10;55.30;;;;;;5075432;28;20170;-59
2021/06/11 01:45:10;;;;;;;1.58;1.48;;;24.10;55.40;;;;;;5093944;28;20185;-59
2021/06/11 01:47:37;;;;;;;2.22;2.03;;;24.00;55.30;;;;;;5075339;28;20353;-59
2021/06/11 01:50:03;;;;;;;1.80;1.70;;;24.00;55.30;;;;;;5075118;28;20188;-59
2021/06/11 01:52:29;;;;;;;1.83;1.73;;;24.00;55.40;;;;;;5058900;28;20177;-59
2021/06/11 01:54:54;;;;;;;1.95;1.85;;;24.00;55.40;;;;;;5074971;28;20250;-59
2021/06/11 01:57:20;;;;;;;1.60;1.50;;;24.00;55.40;;;;;;5058964;28;20185;-59
2021/06/11 01:59:45;;;;;;;1.80;1.70;;;24.00;55.40;;;;;;5075275;28;20170;-59
2021/06/11 02:02:11;;;;;;;1.90;1.80;;;24.00;55.40;;;;;;5074951;28;20221;-59
2021/06/11 02:04:36;;;;;;;1.83;1.73;;;24.00;55.40;;;;;;5093317;28;20169;-59
2021/06/11 02:07:07;;;;;;;1.90;1.80;;;24.00;55.40;;;;;;5075531;28;20174;-59
2021/06/11 02:09:33;;;;;;;1.73;1.63;;;24.00;55.40;;;;;;5075984;28;20173;-59
2021/06/11 02:12:00;;;;;;;2.00;1.90;;;24.00;55.40;;;;;;5075177;28;20185;-59
2021/06/11 02:14:26;;;;;;;1.95;1.70;;;24.00;55.50;;;;;;5075262;28;20238;-59
2021/06/11 02:16:51;;;;;;;1.88;1.77;;;24.00;55.50;;;;;;5075125;28;20252;-59
2021/06/11 02:19:17;;;;;;;1.90;1.80;;;24.00;55.50;;;;;;5058515;28;20311;-59
2021/06/11 02:21:43;;;;;;;1.88;1.77;;;24.00;55.40;;;;;;5057817;28;20220;-59
2021/06/11 02:24:09;;;;;;;1.85;1.75;;;24.00;55.50;;;;;;5075132;28;20174;-59
2021/06/11 02:26:34;;;;;;;1.73;1.63;;;24.00;55.50;;;;;;5074458;28;20177;-59
2021/06/11 02:29:00;;;;;;;2.10;1.90;;;23.90;55.40;;;;;;5058362;28;20177;-59
2021/06/11 02:31:25;;;;;;;2.42;2.22;;;24.00;55.50;;;;;;5093287;28;20169;-59
2021/06/11 02:33:51;;;;;;;1.77;1.67;;;23.90;55.50;;;;;;5092711;28;20512;-59
2021/06/11 02:36:17;;;;;;;2.10;2.00;;;24.00;55.50;;;;;;5092572;28;20181;-59
2021/06/11 02:38:42;;;;;;;1.63;1.52;;;23.90;55.50;;;;;;5092603;28;20182;-60
2021/06/11 02:41:09;;;;;;;2.00;1.90;;;23.90;55.40;;;;;;5092410;28;20205;-59
2021/06/11 02:43:37;;;;;;;2.00;1.90;;;23.90;55.50;;;;;;5057692;28;20166;-59
2021/06/11 02:46:14;;;;;;;1.60;1.50;;;23.90;55.50;;;;;;5075213;28;20253;-60
2021/06/11 02:48:57;;;;;;;1.95;1.80;;;23.90;55.50;;;;;;5059034;28;20191;-60
2021/06/11 02:51:32;;;;;;;1.77;1.67;;;23.90;55.50;;;;;;5074304;28;20169;-59
2021/06/11 02:53:59;;;;;;;1.60;1.50;;;23.90;55.50;;;;;;5074865;28;20189;-59
2021/06/11 02:56:38;;;;;;;1.88;1.77;;;23.90;55.50;;;;;;5074419;28;20182;-59
2021/06/11 02:59:05;;;;;;;1.90;1.80;;;23.90;55.60;;;;;;5075292;28;20181;-59
2021/06/11 03:01:34;;;;;;;2.05;1.95;;;23.90;55.50;;;;;;5057143;28;20222;-60
2021/06/11 03:04:00;;;;;;;1.80;1.70;;;23.90;55.50;;;;;;5057478;28;20185;-60
2021/06/11 03:06:25;;;;;;;1.80;1.70;;;23.90;55.60;;;;;;5057784;28;20186;-59
2021/06/11 03:08:51;;;;;;;2.05;1.95;;;23.90;55.60;;;;;;5074044;28;20223;-60
2021/06/11 03:11:28;;;;;;;1.83;1.73;;;23.80;55.50;;;;;;5057390;28;20170;-59
2021/06/11 03:13:53;;;;;;;1.63;1.52;;;23.80;55.60;;;;;;5075773;28;20205;-59
2021/06/11 03:16:19;;;;;;;1.92;1.77;;;23.80;55.60;;;;;;5074270;28;20201;-59
2021/06/11 03:18:51;;;;;;;2.28;2.17;;;23.80;55.60;;;;;;5091511;28;20177;-59
2021/06/11 03:21:25;;;;;;;1.67;1.58;;;23.90;55.60;;;;;;5074553;28;20293;-59
2021/06/11 03:24:15;;;;;;;2.20;2.10;;;23.80;55.60;;;;;;5073983;28;20174;-59
2021/06/11 03:26:48;;;;;;;1.98;1.88;;;23.80;55.60;;;;;;5091678;28;20176;-59
2021/06/11 03:29:16;;;;;;;1.70;1.60;;;23.80;55.60;;;;;;5074031;28;20173;-58
2021/06/11 03:31:45;;;;;;;2.00;1.90;;;23.80;55.60;;;;;;5073972;28;20177;-59
2021/06/11 03:34:24;;;;;;;1.80;1.70;;;23.80;55.60;;;;;;5074706;28;20712;-60
2021/06/11 03:36:50;;;;;;;1.90;1.80;;;23.80;55.60;;;;;;5057900;28;20642;-60
2021/06/11 03:39:19;;;;;;;2.20;2.10;;;23.80;55.60;;;;;;5073771;28;20197;-60
2021/06/11 03:41:44;;;;;;;2.00;1.90;;;23.80;55.60;;;;;;5074270;28;20288;-60
2021/06/11 03:44:10;;;;;;;1.95;1.85;;;23.80;55.70;;;;;;5057513;28;20658;-59
2021/06/11 03:46:37;;;;;;;2.03;1.92;;;23.80;55.60;;;;;;5073471;28;20177;-59
2021/06/11 03:49:03;;;;;;;2.00;1.90;;;23.80;55.60;;;;;;5074258;28;20174;-60
2021/06/11 03:51:29;;;;;;;1.90;1.80;;;23.80;55.70;;;;;;5073983;28;20239;-60
2021/06/11 03:53:55;;;;;;;2.33;2.22;;;23.80;55.60;;;;;;5056686;28;20170;-59
2021/06/11 03:56:20;;;;;;;2.10;2.00;;;23.80;55.60;;;;;;5092002;28;20644;-59
2021/06/11 03:58:46;;;;;;;1.90;1.80;;;23.80;55.60;;;;;;5073513;28;20213;-59
2021/06/11 04:01:21;;;;;;;2.63;2.42;;;23.80;55.60;;;;;;5091488;28;20213;-59
2021/06/11 04:03:46;;;;;;;2.22;2.13;;;23.80;55.60;;;;;;5091262;28;20229;-60
2021/06/11 04:06:17;;;;;;;2.08;1.98;;;23.80;55.60;;;;;;5092077;28;20534;-60
2021/06/11 04:08:42;;;;;;;2.10;2.00;;;23.80;55.60;;;;;;5091267;28;20176;-60
2021/06/11 04:11:12;;;;;;;2.20;2.10;;;23.80;55.60;;;;;;5092159;28;20181;-59
2021/06/11 04:13:48;;;;;;;1.90;1.80;;;23.80;55.60;;;;;;5075343;28;20215;-59
2021/06/11 04:16:19;;;;;;;2.28;2.17;;;23.80;55.60;;;;;;5095930;28;20181;-59
2021/06/11 04:18:44;;;;;;;1.88;1.77;;;23.80;55.60;;;;;;5095314;28;20178;-60
2021/06/11 04:21:14;;;;;;;1.80;1.70;;;23.80;55.50;;;;;;5060268;28;20205;-60
2021/06/11 04:23:40;;;;;;;2.10;2.00;;;23.90;55.60;;;;;;5078083;28;20177;-60
2021/06/11 04:26:05;;;;;;;1.90;1.80;;;23.80;55.60;;;;;;5060763;28;20170;-60
2021/06/11 04:28:33;;;;;;;1.90;1.80;;;23.80;55.60;;;;;;5076772;28;20191;-60
2021/06/11 04:30:58;;;;;;;2.22;2.13;;;23.80;55.60;;;;;;5061166;28;20174;-60
2021/06/11 04:33:25;;;;;;;2.15;2.05;;;23.80;55.50;;;;;;5095186;28;20174;-61
2021/06/11 04:35:51;;;;;;;2.20;2.10;;;23.80;55.50;;;;;;5094542;28;20181;-60
2021/06/11 04:38:17;;;;;;;2.00;1.90;;;23.80;55.50;;;;;;5095490;28;20697;-60
2021/06/11 04:40:42;;;;;;;2.00;1.90;;;23.80;55.50;;;;;;5094790;28;20237;-60
2021/06/11 04:43:08;;;;;;;2.22;2.13;;;23.90;55.60;;;;;;5094863;28;20170;-60
2021/06/11 04:45:34;;;;;;;2.15;2.05;;;23.80;55.50;;;;;;5094891;28;20174;-60
2021/06/11 04:48:00;;;;;;;2.42;2.22;;;23.80;55.50;;;;;;5094840;28;20180;-59
2021/06/11 04:50:26;;;;;;;2.00;1.90;;;23.90;55.60;;;;;;5094460;28;20178;-59
2021/06/11 04:52:51;;;;;;;2.20;2.10;;;23.90;55.60;;;;;;5094659;28;20536;-59
2021/06/11 04:55:17;;;;;;;2.22;2.13;;;23.90;55.50;;;;;;5094782;28;20203;-60
2021/06/11 04:57:43;;;;;;;1.88;1.77;;;23.90;55.50;;;;;;5094002;28;20243;-60
2021/06/11 05:00:09;;;;;;;2.13;2.03;;;23.90;55.50;;;;;;5076260;28;20201;-60
2021/06/11 05:02:35;;;;;;;2.30;2.20;;;23.80;55.40;;;;;;5094688;28;20210;-60
2021/06/11 05:05:00;;;;;;;2.38;2.28;;;23.90;55.50;;;;;;5094054;28;20271;-60
2021/06/11 05:07:26;;;;;;;2.10;2.00;;;23.80;55.40;;;;;;5094599;28;20205;-60
2021/06/11 05:09:51;;;;;;;2.40;2.20;;;23.80;55.40;;;;;;5094491;28;20173;-60
2021/06/11 05:12:17;;;;;;;2.47;2.28;;;23.90;55.50;;;;;;5094236;28;20170;-60
2021/06/11 05:14:43;;;;;;;2.15;2.05;;;23.90;55.50;;;;;;5094094;28;20579;-60
2021/06/11 05:17:08;;;;;;;2.13;2.03;;;23.90;55.50;;;;;;5093965;28;20521;-59
2021/06/11 05:19:34;;;;;;;2.13;2.03;;;23.90;55.50;;;;;;5094016;28;20177;-59
2021/06/11 05:21:59;;;;;;;2.50;2.25;;;23.90;55.50;;;;;;5094066;28;20201;-59
2021/06/11 05:24:25;;;;;;;2.40;2.22;;;23.90;55.50;;;;;;5093897;28;20181;-59
2021/06/11 05:26:50;;;;;;;2.53;2.33;;;23.90;55.60;;;;;;5094018;28;20174;-59
2021/06/11 05:29:16;;;;;;;2.20;2.03;;;23.90;55.50;;;;;;5094081;28;20165;-60
2021/06/11 05:31:42;;;;;;;2.30;2.10;;;23.90;55.60;;;;;;5093454;28;20243;-60
2021/06/11 05:34:08;;;;;;;2.15;2.03;;;23.90;55.60;;;;;;5094129;28;20178;-60
2021/06/11 05:36:33;;;;;;;2.30;2.20;;;23.90;55.50;;;;;;5093823;28;20189;-61
2021/06/11 05:38:59;;;;;;;2.40;2.30;;;23.90;55.50;;;;;;5093631;28;20174;-60
2021/06/11 05:41:24;;;;;;;2.30;2.20;;;23.90;55.50;;;;;;5094114;28;20217;-60
2021/06/11 05:43:51;;;;;;;2.45;2.25;;;23.90;56.20;;;;;;5093564;28;20193;-60
2021/06/11 05:46:17;;;;;;;2.30;2.20;;;23.90;56.20;;;;;;5093341;28;20169;-59
2021/06/11 05:48:43;;;;;;;2.58;2.38;;;23.90;55.50;;;;;;5093600;28;20257;-59
2021/06/11 05:51:09;;;;;;;2.17;2.08;;;23.90;55.60;;;;;;5093853;28;20180;-59
2021/06/11 05:53:36;;;;;;;2.30;2.10;;;23.90;55.50;;;;;;5093175;28;20177;-59
2021/06/11 05:56:01;;;;;;;2.17;2.03;;;23.90;55.50;;;;;;5093898;28;20181;-60
2021/06/11 05:58:27;;;;;;;2.00;1.90;;;23.90;55.60;;;;;;5093563;28;20524;-60
2021/06/11 06:00:53;;;;;;;2.10;2.00;;;23.90;55.70;;;;;;5092961;28;20221;-60
2021/06/11 06:03:18;;;;;;;2.20;2.10;;;23.90;55.70;;;;;;5093167;28;20193;-60
2021/06/11 06:05:45;;;;;;;2.13;2.03;;;23.90;55.70;;;;;;5093526;28;20192;-61
2021/06/11 06:08:10;;;;;;;2.00;1.90;;;23.90;55.70;;;;;;5093167;28;20165;-60
2021/06/11 06:10:36;;;;;;;2.03;1.92;;;23.90;55.70;;;;;;5093060;28;20665;-60
2021/06/11 06:13:01;;;;;;;2.80;2.17;;;23.90;55.70;;;;;;5093403;28;20631;-60
2021/06/11 06:15:27;;;;;;;2.00;1.90;;;23.90;55.70;;;;;;5092880;28;20178;-59
2021/06/11 06:17:52;;;;;;;2.20;2.10;;;24.00;55.70;;;;;;5092868;28;20177;-60
2021/06/11 06:20:18;;;;;;;1.92;1.83;;;23.90;55.60;;;;;;5092889;28;20258;-59
2021/06/11 06:22:43;;;;;;;2.10;2.00;;;23.90;55.60;;;;;;5093118;28;20173;-59
2021/06/11 06:25:10;;;;;;;2.50;2.40;;;23.90;55.70;;;;;;5093090;28;20217;-59
2021/06/11 06:27:36;;;;;;;2.25;2.10;;;23.90;55.70;;;;;;5092286;28;20635;-59
2021/06/11 06:30:02;;;;;;;1.90;1.80;;;23.90;55.80;;;;;;5093131;28;20185;-60
2021/06/11 06:32:29;;;;;;;2.40;2.20;;;23.90;55.80;;;;;;5092792;28;20193;-60
2021/06/11 06:34:56;;;;;;;2.00;1.90;;;23.90;55.80;;;;;;5092385;28;20169;-61
2021/06/11 06:37:21;;;;;;;1.90;1.80;;;23.90;55.80;;;;;;5092423;28;20585;-60
2021/06/11 06:39:47;;;;;;;2.20;2.10;;;23.90;55.80;;;;;;5092400;28;20178;-60
2021/06/11 06:42:12;;;;;;;2.33;2.13;;;24.00;55.80;;;;;;5092694;28;20217;-60
2021/06/11 06:44:39;;;;;;;2.05;1.95;;;24.00;55.80;;;;;;5092456;28;20166;-60
2021/06/11 06:47:05;;;;;;;2.40;2.30;;;24.00;55.70;;;;;;5092557;28;20188;-60
2021/06/11 06:49:32;;;;;;;1.90;1.80;;;24.00;55.70;;;;;;5092246;28;20592;-60
2021/06/11 06:51:58;;;;;;;1.92;1.83;;;24.00;55.70;;;;;;5092907;28;20174;-59
2021/06/11 06:54:23;;;;;;;1.80;1.70;;;24.00;55.70;;;;;;5074501;28;20177;-60
2021/06/11 06:56:49;;;;;;;1.80;1.70;;;24.00;55.70;;;;;;5091896;28;20169;-59
2021/06/11 06:59:14;;;;;;;1.90;1.80;;;24.00;55.70;;;;;;5092568;28;20181;-60
2021/06/11 07:01:40;;;;;;;2.35;2.15;;;24.00;55.70;;;;;;5092374;28;20544;-60
2021/06/11 07:04:05;;;;;;;1.48;1.38;;;24.00;55.70;;;;;;5092087;28;20528;-61
2021/06/11 07:06:31;;;;;;;2.10;2.00;;;24.00;55.70;;;;;;5092017;28;20274;-61
2021/06/11 07:08:57;;;;;;;1.90;1.80;;;24.00;55.70;;;;;;5092633;28;20176;-60
2021/06/11 07:11:22;;;;;;;2.08;1.98;;;24.00;55.70;;;;;;5092134;28;20169;-60
2021/06/11 07:13:48;;;;;;;2.15;1.95;;;24.10;55.70;;;;;;5091933;28;20177;-60
2021/06/11 07:16:14;;;;;;;2.20;2.00;;;24.10;55.70;;;;;;5092231;28;20185;-60
2021/06/11 07:18:39;;;;;;;2.00;1.90;;;24.10;55.70;;;;;;5091558;28;20177;-60
2021/06/11 07:21:05;;;;;;;1.90;1.80;;;24.10;55.70;;;;;;5092074;28;20651;-59
2021/06/11 07:23:32;;;;;;;2.47;2.28;;;24.20;55.70;;;;;;5092004;28;20170;-59
2021/06/11 07:25:59;;;;;;;2.10;1.85;;;24.20;55.70;;;;;;5092091;28;20177;-59
2021/06/11 07:28:26;;;;;;;2.25;2.10;;;24.20;55.70;;;;;;5092182;28;20185;-60
2021/06/11 07:30:53;;;;;;;1.98;1.88;;;24.20;55.70;;;;;;5091589;28;20239;-60
2021/06/11 07:33:19;;;;;;;1.98;1.83;;;24.20;55.70;;;;;;5092410;28;20173;-60
2021/06/11 07:35:44;;;;;;;1.80;1.70;;;24.20;55.70;;;;;;5091753;28;20546;-60
2021/06/11 07:38:10;;;;;;;2.00;1.90;;;24.20;55.70;;;;;;5091504;28;20190;-61
2021/06/11 07:40:35;;;;;;;1.67;1.58;;;24.20;55.80;;;;;;5091768;28;20193;-60
2021/06/11 07:43:02;;;;;;;2.22;2.10;;;24.10;55.80;;;;;;5091878;28;20562;-60
2021/06/11 07:45:28;;;;;;;1.80;1.70;;;24.20;55.80;;;;;;5091571;28;20810;-60
2021/06/11 07:47:54;;;;;;;2.03;1.92;;;24.20;55.70;;;;;;5091707;28;20196;-60
2021/06/11 07:50:19;;;;;;;1.65;1.55;;;24.20;55.70;;;;;;5095848;28;20612;-59
2021/06/11 07:52:45;;;;;;;2.13;2.03;;;24.30;55.80;;;;;;5095253;28;20227;-59
2021/06/11 07:55:11;;;;;;;1.98;1.88;;;24.30;55.70;;;;;;5095941;28;20231;-60
2021/06/11 07:57:37;;;;;;;1.60;1.50;;;24.30;55.70;;;;;;5095419;28;20268;-60
2021/06/11 08:00:03;;;;;;;1.85;1.75;;;24.30;55.60;;;;;;5095120;28;20285;-60
2021/06/11 08:02:29;;;;;;;1.90;1.80;;;24.40;55.70;;;;;;5095740;28;20178;-61
2021/06/11 08:04:54;;;;;;;1.70;1.60;;;24.40;55.60;;;;;;5095231;28;20739;-61
2021/06/11 08:07:20;;;;;;;2.10;2.00;;;24.40;55.60;;;;;;5095162;28;20185;-61
2021/06/11 08:09:45;;;;;;;1.92;1.73;;;24.50;55.50;;;;;;5077101;28;20265;-60
2021/06/11 08:12:12;;;;;;;1.70;1.60;;;24.40;55.50;;;;;;5095543;28;20654;-59
2021/06/11 08:14:37;;;;;;;1.67;1.58;;;24.50;55.60;;;;;;5094705;28;20200;-60
2021/06/11 08:17:03;;;;;;;2.25;1.70;;;24.40;55.50;;;;;;5095262;28;20624;-60
2021/06/11 08:19:28;;;;;;;1.90;1.80;;;24.50;55.60;;;;;;5095660;28;20174;-60
2021/06/11 08:21:54;;;;;;;1.85;1.75;;;24.50;55.60;;;;;;5094634;28;20212;-60
2021/06/11 08:24:19;;;;;;;1.83;1.73;;;24.50;55.60;;;;;;5095222;28;20173;-60
2021/06/11 08:26:45;;;;;;;1.90;1.80;;;24.50;55.60;;;;;;5095221;28;20193;-60
2021/06/11 08:29:10;;;;;;;2.00;1.60;;;24.50;55.50;;;;;;5094645;28;20169;-61
2021/06/11 08:31:36;;;;;;;1.67;1.58;;;24.60;55.60;;;;;;5094959;28;20263;-66
2021/06/11 08:34:01;;;;;;;2.05;1.73;;;24.60;55.70;;;;;;5094856;28;20198;-67
2021/06/11 08:36:27;;;;;;;2.35;1.88;;;24.60;55.70;;;;;;5095246;28;20672;-65
2021/06/11 08:38:52;;;;;;;2.05;1.70;;;24.60;55.70;;;;;;5094703;28;20655;-61
2021/06/11 08:41:18;;;;;;;2.05;1.90;;;24.60;55.70;;;;;;5094601;28;20205;-67
2021/06/11 08:43:43;;;;;;;2.13;2.03;;;24.60;55.70;;;;;;5076647;28;20185;-59
2021/06/11 08:46:09;;;;;;;2.53;2.13;;;24.60;55.80;;;;;;5094951;28;20193;-59
2021/06/11 08:48:36;;;;;;;2.85;1.73;;;24.60;55.80;;;;;;5094485;28;20196;-59
2021/06/11 08:51:01;;;;;;;2.78;2.22;;;24.70;55.80;;;;;;5075544;28;20178;-64
2021/06/11 08:53:27;;;;;;;2.35;2.10;;;24.60;55.90;;;;;;5076489;28;20473;-64
2021/06/11 08:55:52;;;;;;;4.45;2.47;;;24.70;55.90;;;;;;5094294;28;20584;-64
2021/06/11 08:58:18;;;;;;;2.33;2.03;;;24.70;56.00;;;;;;5094845;28;20589;-65
2021/06/11 09:00:43;;;;;;;4.32;2.45;;;24.70;56.10;;;;;;5093886;28;20205;-65
2021/06/11 09:03:21;;;;;;;3.30;2.28;;;24.70;56.10;;;;;;5094509;28;20206;-64
2021/06/11 09:06:05;;;;;;;3.78;2.10;;;24.70;56.10;;;;;;5094222;28;20670;-65
2021/06/11 09:08:31;;;;;;;2.90;2.22;;;24.80;56.20;;;;;;5094210;28;20662;-65
2021/06/11 09:11:09;;;;;;;5.15;2.38;;;24.80;56.00;;;;;;5094422;28;20311;-65
2021/06/11 09:13:35;;;;;;;3.75;2.80;;;24.80;56.10;;;;;;5094332;28;20169;-64
2021/06/11 09:16:13;;;;;;;2.95;2.50;;;24.80;56.10;;;;;;5094738;28;20174;-64
2021/06/11 09:18:52;;;;;;;3.85;2.55;;;24.80;56.10;;;;;;5188057;22;20236;-62
2021/06/11 09:21:35;;;;;;;4.28;2.13;;;24.90;56.10;;;;;;5095074;28;20285;-64
2021/06/11 09:24:22;;;;;;;2.78;2.58;;;24.90;56.00;;;;;;5094416;28;20227;-62
2021/06/11 09:26:57;;;;;;;2.97;2.17;;;24.90;56.00;;;;;;5094664;28;20260;-62
2021/06/11 09:29:34;;;;;;;3.42;2.45;;;24.90;56.00;;;;;;5094398;28;20250;-63
2021/06/11 09:32:28;;;;;;;3.40;2.40;;;24.90;56.00;;;;;;5074198;28;20220;-63
2021/06/11 09:34:58;;;;;;;3.28;2.75;;;25.00;56.10;;;;;;5082186;28;20628;-63
2021/06/11 09:37:33;;;;;;;5.35;3.20;;;25.00;56.00;;;;;;5094158;28;20224;-63
2021/06/11 09:40:07;;;;;;;6.47;2.95;;;25.00;56.00;;;;;;5094509;28;20173;-63
2021/06/11 09:42:34;;;;;;;3.30;2.45;;;25.00;56.00;;;;;;5094533;28;20190;-62
2021/06/11 09:45:07;;;;;;;3.15;2.85;;;25.10;56.70;;;;;;5093990;28;20170;-63
2021/06/11 09:47:51;;;;;;;3.08;2.78;;;25.10;56.00;;;;;;5094011;28;20627;-63
2021/06/11 09:50:24;;;;;;;4.25;2.72;;;25.10;55.90;;;;;;5094429;28;20182;-63
2021/06/11 09:53:01;;;;;;;3.20;2.60;;;25.10;55.90;;;;;;5093414;28;20209;-63
2021/06/11 09:55:27;;;;;;;3.03;2.17;;;25.20;56.60;;;;;;5094438;28;20185;-62
2021/06/11 09:58:07;;;;;;;3.50;2.78;;;25.20;56.00;;;;;;5094623;28;20227;-63
2021/06/11 10:00:34;;;;;;;4.18;2.63;;;25.20;55.90;;;;;;5093204;28;20237;-63
2021/06/11 10:03:00;;;;;;;3.25;2.50;;;25.20;56.00;;;;;;5094347;28;20192;-64
2021/06/11 10:05:28;;;;;;;3.75;2.65;;;25.20;56.00;;;;;;5093688;28;20623;-64
2021/06/11 10:07:55;;;;;;;2.88;2.67;;;25.10;56.00;;;;;;5093675;28;20177;-63
2021/06/11 10:10:20;;;;;;;5.00;2.83;;;25.10;56.10;;;;;;5094106;28;20265;-63
2021/06/11 10:12:46;;;;;;;3.33;2.83;;;25.20;56.10;;;;;;5092482;28;20260;-62
2021/06/11 10:15:13;;;;;;;3.65;2.58;;;25.20;56.00;;;;;;5075937;28;20209;-59
2021/06/11 10:17:41;;;;;;;3.42;3.13;;;25.30;56.00;;;;;;5093867;28;20312;-63
2021/06/11 10:20:08;;;;;;;4.28;3.03;;;25.30;56.10;;;;;;5093226;28;20259;-62
2021/06/11 10:22:33;;;;;;;3.33;2.85;;;25.20;56.20;;;;;;5075665;28;20189;-62
2021/06/11 10:24:59;;;;;;;2.45;2.25;;;25.30;56.20;;;;;;5093870;28;20162;-63
2021/06/11 10:27:24;;;;;;;2.78;2.55;;;25.30;56.10;;;;;;5074924;28;20646;-63
2021/06/11 10:29:50;;;;;;;6.03;3.10;;;25.30;56.10;;;;;;5075616;28;20170;-63
2021/06/11 10:32:16;;;;;;;2.90;2.58;;;25.30;56.10;;;;;;5075787;28;20178;-63
2021/06/11 10:34:54;;;;;;;4.22;3.00;;;25.40;56.00;;;;;;5074423;28;20165;-63
2021/06/11 10:37:43;;;;;;;4.63;2.90;;;25.40;56.00;;;;;;5093862;28;20181;-63
2021/06/11 10:40:16;;;;;;;3.10;2.55;;;25.40;56.10;;;;;;5093694;28;20209;-62
2021/06/11 10:42:42;;;;;;;3.03;2.75;;;25.30;56.20;;;;;;5092821;28;20185;-62
2021/06/11 10:45:09;;;;;;;3.17;2.88;;;25.30;56.20;;;;;;5092493;28;20234;-63
2021/06/11 10:47:34;;;;;;;2.92;2.72;;;25.40;56.10;;;;;;5092771;28;20180;-62
2021/06/11 10:50:01;;;;;;;4.95;2.97;;;25.40;56.10;;;;;;5092982;28;20268;-63
2021/06/11 10:52:33;;;;;;;2.35;2.15;;;25.40;56.10;;;;;;5093506;28;20184;-63
2021/06/11 10:55:14;;;;;;;2.80;2.60;;;25.40;56.10;;;;;;5092624;28;20176;-63
2021/06/11 10:57:46;;;;;;;2.83;2.58;;;25.40;56.10;;;;;;5093203;28;20173;-63
2021/06/11 11:00:23;;;;;;;3.67;3.00;;;25.50;56.10;;;;;;5093397;28;20201;-63
2021/06/11 11:02:53;;;;;;;3.00;2.70;;;25.50;56.00;;;;;;5092256;28;20185;-64
2021/06/11 11:05:31;;;;;;;3.20;2.90;;;25.50;56.00;;;;;;5093090;28;20501;-64
2021/06/11 11:07:57;;;;;;;4.18;2.58;;;25.50;56.00;;;;;;5094031;28;20177;-63
2021/06/11 11:10:43;;;;;;;3.00;2.80;;;25.50;56.00;;;;;;5092576;28;20204;-63
2021/06/11 11:13:09;;;;;;;2.85;2.65;;;25.50;55.90;;;;;;5093193;28;20271;-63
2021/06/11 11:15:38;;;;;;;3.83;3.05;;;25.60;56.00;;;;;;5092906;28;20537;-63
2021/06/11 11:18:05;;;;;;;3.38;2.80;;;25.60;56.00;;;;;;5091977;28;20568;-64
2021/06/11 11:20:31;;;;;;;3.97;2.72;;;25.60;55.90;;;;;;5092746;28;20762;-64
2021/06/11 11:23:02;;;;;;;2.80;2.45;;;25.60;56.00;;;;;;5095479;28;20264;-64
2021/06/11 11:25:28;;;;;;;3.30;2.88;;;25.50;56.00;;;;;;5099814;28;20165;-63
2021/06/11 11:27:54;;;;;;;2.90;2.45;;;25.50;56.10;;;;;;5099391;28;20603;-63
2021/06/11 11:30:23;;;;;;;4.85;3.17;;;25.60;56.10;;;;;;5080700;28;20177;-64
2021/06/11 11:32:49;;;;;;;5.70;3.92;;;25.60;56.10;;;;;;5099565;28;20197;-66
2021/06/11 11:35:16;;;;;;;5.85;3.30;;;25.60;56.20;;;;;;5099737;28;20185;-64
2021/06/11 11:37:42;;;;;;;4.85;3.55;;;25.70;56.20;;;;;;5098654;28;20177;-65
2021/06/11 11:40:08;;;;;;;4.82;3.58;;;25.70;56.10;;;;;;5099506;28;20170;-63
2021/06/11 11:42:34;;;;;;;4.25;3.85;;;25.70;56.10;;;;;;5099198;28;20191;-64
2021/06/11 11:44:59;;;;;;;4.22;3.80;;;25.70;56.20;;;;;;5098716;28;20525;-62
2021/06/11 11:47:25;;;;;;;4.40;3.17;;;25.70;56.30;;;;;;5099445;28;20643;-68
2021/06/11 11:49:50;;;;;;;4.28;3.40;;;25.70;56.10;;;;;;5099433;28;20166;-68
2021/06/11 11:52:16;;;;;;;4.65;3.40;;;25.60;56.20;;;;;;5098831;28;20169;-67
2021/06/11 11:54:41;;;;;;;4.53;3.33;;;25.60;56.50;;;;;;5099245;28;20169;-68
2021/06/11 11:57:07;;;;;;;4.78;4.07;;;25.50;56.60;;;;;;5099702;28;20162;-68
2021/06/11 11:59:32;;;;;;;3.85;3.22;;;25.60;56.50;;;;;;5098504;28;20715;-69
2021/06/11 12:01:58;;;;;;;5.50;3.35;;;25.70;56.30;;;;;;5099194;28;20639;-66
2021/06/11 12:04:23;;;;;;;6.28;3.90;;;25.70;56.40;;;;;;5099598;28;20178;-68
2021/06/11 12:06:49;;;;;;;5.95;4.35;;;25.70;56.30;;;;;;5098342;28;20543;-66
2021/06/11 12:09:14;;;;;;;4.10;3.45;;;25.80;56.20;;;;;;5099477;28;20173;-64
2021/06/11 12:11:40;;;;;;;6.85;3.90;;;25.90;56.10;;;;;;5098415;28;20628;-64
2021/06/11 12:14:06;;;;;;;3.35;3.05;;;25.90;56.00;;;;;;5098082;28;20173;-64
2021/06/11 12:16:31;;;;;;;5.45;3.58;;;25.80;56.10;;;;;;5099068;28;20170;-64
2021/06/11 12:18:57;;;;;;;5.97;3.60;;;25.80;56.10;;;;;;5098956;28;20217;-64
2021/06/11 12:21:22;;;;;;;4.95;3.50;;;25.90;56.00;;;;;;5080389;28;20663;-64
2021/06/11 12:23:48;;;;;;;6.35;3.58;;;25.90;55.90;;;;;;5098680;28;20184;-64
2021/06/11 12:26:14;;;;;;;4.22;3.67;;;25.90;56.00;;;;;;5098293;28;20620;-64
2021/06/11 12:28:39;;;;;;;4.80;3.83;;;25.80;56.10;;;;;;5098758;28;20192;-64
2021/06/11 12:31:05;;;;;;;5.40;3.80;;;25.80;56.10;;;;;;5099026;28;20296;-65
2021/06/11 12:33:30;;;;;;;4.20;3.80;;;25.80;56.10;;;;;;5097841;28;20181;-65
2021/06/11 12:35:56;;;;;;;4.72;3.38;;;25.70;56.10;;;;;;5095402;28;20189;-65
2021/06/11 12:38:21;;;;;;;4.85;3.50;;;25.70;56.20;;;;;;5095930;28;20165;-65
2021/06/11 12:40:49;;;;;;;4.65;3.70;;;25.80;56.10;;;;;;5094761;28;20204;-64
2021/06/11 12:43:17;;;;;;;4.40;3.60;;;25.90;56.00;;;;;;5095724;28;20200;-64
2021/06/11 12:45:43;;;;;;;5.38;3.80;;;25.90;56.00;;;;;;5095442;28;20166;-64
2021/06/11 12:48:11;;;;;;;4.20;3.90;;;25.80;56.10;;;;;;5095105;28;20276;-65
2021/06/11 12:50:40;;;;;;;5.35;3.38;;;25.70;56.20;;;;;;5095129;28;20243;-64